Time;durP1;ratioP1;P1;durP2;ratioP2;P2;SDS_P1;SDS_P2;PMS_P1;PMS_P2;Temp;Humidity;BMP_temperature;BMP_pressure;BME280_temperature;BME280_humidity;BME280_pressure;Samples;Min_cycle;Max_cycle;Signal;HPM_P1;HPM_P2
2023/05/21 00:00:32;;;;;;;12.02;10.88;;;;;;;;;;476868;29;1218;-70
2023/05/21 00:01:04;;;;;;;12.13;11.02;;;;;;;;;;475553;29;1109;-69
2023/05/21 00:01:41;;;;;;;12.25;11.10;;;;;;;;;;473650;29;1521;-72
2023/05/21 00:02:06;;;;;;;11.68;10.57;;;;;;;;;;488548;29;1442;-69
2023/05/21 00:02:46;;;;;;;12.07;10.77;;;;;;;;;;479877;29;1384;-68
2023/05/21 00:03:04;;;;;;;12.07;10.93;;;;;;;;;;485869;29;1514;-68
2023/05/21 00:03:50;;;;;;;12.10;10.90;;;;;;;;;;476242;29;1067;-68
2023/05/21 00:04:21;;;;;;;11.27;10.25;;;;;;;;;;479048;29;1117;-68
2023/05/21 00:04:45;;;;;;;11.32;10.23;;;;;;;;;;481601;29;1183;-69
2023/05/21 00:05:22;;;;;;;;;;;;;;;;;;;;;
2023/05/21 00:05:39;;;;;;;12.07;10.98;;;;;;;;;;481857;29;1019;-69
2023/05/21 00:06:14;;;;;;;12.20;11.00;;;;;;;;;;488328;29;975;-68
2023/05/21 00:06:54;;;;;;;;;;;;;;;;;;;;;
2023/05/21 00:08:16;;;;;;;;;;;;;;;;;;;;;
2023/05/21 00:08:43;;;;;;;12.63;11.20;;;;;;;;;;477697;29;1295;-69
2023/05/21 00:09:22;;;;;;;;;;;;;;;;;;;;;
2023/05/21 00:10:07;;;;;;;11.65;10.55;;;;;;;;;;475828;29;1265;-68
2023/05/21 00:10:27;;;;;;;12.25;11.05;;;;;;;;;;478826;29;1133;-69
2023/05/21 00:10:49;;;;;;;11.88;10.70;;;;;;;;;;471959;29;1149;-69
2023/05/21 00:11:11;;;;;;;11.85;10.65;;;;;;;;;;479349;29;1381;-68
2023/05/21 00:11:39;;;;;;;11.55;10.43;;;;;;;;;;481408;29;2015;-68
2023/05/21 00:12:07;;;;;;;11.77;10.67;;;;;;;;;;486200;29;1001;-68
2023/05/21 00:12:32;;;;;;;11.48;10.48;;;;;;;;;;472423;29;1152;-68
2023/05/21 00:12:57;;;;;;;11.35;10.35;;;;;;;;;;471016;29;1920;-68
2023/05/21 00:13:18;;;;;;;11.68;10.57;;;;;;;;;;475258;29;1336;-68
2023/05/21 00:14:07;;;;;;;;;;;;;;;;;;;;;
2023/05/21 00:14:36;;;;;;;11.80;10.70;;;;;;;;;;476712;29;1471;-68
2023/05/21 00:14:58;;;;;;;11.85;10.55;;;;;;;;;;478106;29;1475;-68
2023/05/21 00:15:19;;;;;;;11.85;10.50;;;;;;;;;;465196;29;1203;-68
2023/05/21 00:15:41;;;;;;;11.95;10.77;;;;;;;;;;471177;29;1355;-68
2023/05/21 00:16:00;;;;;;;12.32;11.07;;;;;;;;;;474976;29;977;-68
2023/05/21 00:16:38;;;;;;;11.98;10.73;;;;;;;;;;472543;29;1375;-67
2023/05/21 00:16:59;;;;;;;11.90;10.77;;;;;;;;;;476613;29;1878;-68
2023/05/21 00:17:35;;;;;;;12.00;10.90;;;;;;;;;;475518;29;1126;-68
2023/05/21 00:18:21;;;;;;;12.55;11.25;;;;;;;;;;480474;29;1124;-68
2023/05/21 00:19:16;;;;;;;12.35;11.20;;;;;;;;;;490024;29;1363;-68
2023/05/21 00:19:39;;;;;;;11.98;10.88;;;;;;;;;;483523;29;1427;-68
2023/05/21 00:20:17;;;;;;;12.50;11.40;;;;;;;;;;473222;29;1427;-68
2023/05/21 00:20:48;;;;;;;11.98;10.80;;;;;;;;;;478840;29;1139;-68
2023/05/21 00:21:16;;;;;;;12.45;11.25;;;;;;;;;;468682;29;1620;-70
2023/05/21 00:21:49;;;;;;;11.73;10.52;;;;;;;;;;486036;29;1186;-68
2023/05/21 00:22:14;;;;;;;11.80;10.52;;;;;;;;;;483865;29;1195;-68
2023/05/21 00:23:13;;;;;;;12.10;10.90;;;;;;;;;;483500;29;1259;-68
2023/05/21 00:23:17;;;;;;;12.20;11.10;;;;;;;;;;478220;29;1360;-69
2023/05/21 00:23:42;;;;;;;11.82;10.73;;;;;;;;;;482287;29;1479;-68
2023/05/21 00:24:16;;;;;;;11.90;10.77;;;;;;;;;;469171;29;2816;-68
2023/05/21 00:24:38;;;;;;;11.85;10.75;;;;;;;;;;479512;29;1070;-68
2023/05/21 00:24:54;;;;;;;12.05;10.85;;;;;;;;;;473486;29;1298;-69
2023/05/21 00:25:11;;;;;;;12.02;10.82;;;;;;;;;;476408;29;1081;-69
2023/05/21 00:25:36;;;;;;;11.65;10.45;;;;;;;;;;486400;29;1243;-68
2023/05/21 00:25:55;;;;;;;11.07;9.98;;;;;;;;;;474672;29;1129;-68
2023/05/21 00:26:24;;;;;;;11.23;10.13;;;;;;;;;;481116;29;1066;-68
2023/05/21 00:27:02;;;;;;;11.80;10.70;;;;;;;;;;488056;29;991;-68
2023/05/21 00:27:19;;;;;;;11.40;10.30;;;;;;;;;;467193;29;1403;-68
2023/05/21 00:28:30;;;;;;;11.52;10.50;;;;;;;;;;483137;29;1291;-69
2023/05/21 00:28:52;;;;;;;11.32;10.25;;;;;;;;;;477931;29;1394;-69
2023/05/21 00:29:15;;;;;;;11.57;10.48;;;;;;;;;;467198;29;1393;-69
2023/05/21 00:30:02;;;;;;;11.90;10.70;;;;;;;;;;484360;29;1078;-69
2023/05/21 00:30:32;;;;;;;11.82;10.73;;;;;;;;;;469045;29;1386;-68
2023/05/21 00:31:17;;;;;;;12.18;10.88;;;;;;;;;;472903;29;1226;-68
2023/05/21 00:31:49;;;;;;;12.38;11.18;;;;;;;;;;477624;29;1189;-68
2023/05/21 00:32:08;;;;;;;11.45;10.35;;;;;;;;;;472546;29;1397;-68
2023/05/21 00:32:27;;;;;;;12.00;10.90;;;;;;;;;;474263;29;1042;-69
2023/05/21 00:32:52;;;;;;;12.40;11.30;;;;;;;;;;474952;29;1882;-67
2023/05/21 00:33:29;;;;;;;12.43;11.30;;;;;;;;;;474390;29;2114;-68
2023/05/21 00:33:45;;;;;;;12.70;11.45;;;;;;;;;;478879;29;1356;-68
2023/05/21 00:34:01;;;;;;;12.30;11.10;;;;;;;;;;476802;29;2019;-68
2023/05/21 00:34:20;;;;;;;11.70;10.60;;;;;;;;;;464788;29;1273;-68
2023/05/21 00:34:44;;;;;;;12.60;11.30;;;;;;;;;;481979;29;1330;-69
2023/05/21 00:35:12;;;;;;;13.27;11.98;;;;;;;;;;477243;29;1869;-68
2023/05/21 00:35:41;;;;;;;12.80;11.60;;;;;;;;;;470258;29;978;-68
2023/05/21 00:36:01;;;;;;;11.75;10.75;;;;;;;;;;483531;29;1307;-68
2023/05/21 00:36:22;;;;;;;11.90;10.70;;;;;;;;;;468200;29;2134;-69
2023/05/21 00:36:39;;;;;;;12.43;11.20;;;;;;;;;;470543;29;1156;-68
2023/05/21 00:37:17;;;;;;;12.18;11.07;;;;;;;;;;474315;29;1302;-68
2023/05/21 00:38:06;;;;;;;11.75;10.65;;;;;;;;;;471105;29;1380;-69
2023/05/21 00:38:38;;;;;;;12.50;11.30;;;;;;;;;;469521;29;1517;-69
2023/05/21 00:39:01;;;;;;;12.45;11.25;;;;;;;;;;468664;29;1569;-68
2023/05/21 00:39:42;;;;;;;12.57;11.38;;;;;;;;;;470941;29;1393;-69
2023/05/21 00:40:16;;;;;;;12.02;10.93;;;;;;;;;;463415;29;1624;-69
2023/05/21 00:40:44;;;;;;;12.63;11.43;;;;;;;;;;477759;29;1539;-68
2023/05/21 00:41:26;;;;;;;12.02;10.85;;;;;;;;;;482005;29;1311;-68
2023/05/21 00:41:45;;;;;;;12.13;10.60;;;;;;;;;;475683;29;1035;-69
2023/05/21 00:42:16;;;;;;;12.32;11.13;;;;;;;;;;487218;29;1277;-68
2023/05/21 00:42:38;;;;;;;11.85;10.75;;;;;;;;;;471315;29;1142;-68
2023/05/21 00:43:08;;;;;;;12.00;10.80;;;;;;;;;;472170;29;1330;-68
2023/05/21 00:43:52;;;;;;;12.05;10.85;;;;;;;;;;478985;29;1430;-68
2023/05/21 00:44:22;;;;;;;12.13;11.02;;;;;;;;;;479867;29;962;-69
2023/05/21 00:44:47;;;;;;;12.23;11.02;;;;;;;;;;476388;29;1382;-70
2023/05/21 00:45:06;;;;;;;12.60;11.30;;;;;;;;;;472739;29;1009;-69
2023/05/21 00:45:36;;;;;;;12.32;11.13;;;;;;;;;;485071;29;1235;-68
2023/05/21 00:45:52;;;;;;;12.23;11.02;;;;;;;;;;470412;29;1547;-68
2023/05/21 00:46:26;;;;;;;;;;;;;;;;;;;;;
2023/05/21 00:48:05;;;;;;;12.80;11.50;;;;;;;;;;481167;29;1390;-68
2023/05/21 00:48:27;;;;;;;12.20;10.88;;;;;;;;;;481488;29;2036;-68
2023/05/21 00:49:15;;;;;;;12.70;10.90;;;;;;;;;;490734;29;1430;-68
2023/05/21 00:50:03;;;;;;;12.27;11.18;;;;;;;;;;480316;29;1202;-68
2023/05/21 00:50:24;;;;;;;12.50;11.23;;;;;;;;;;478008;29;1385;-68
2023/05/21 00:51:01;;;;;;;12.48;11.25;;;;;;;;;;478306;29;1096;-68
2023/05/21 00:51:22;;;;;;;12.35;11.15;;;;;;;;;;478783;29;1529;-68
2023/05/21 00:52:02;;;;;;;12.30;11.10;;;;;;;;;;483937;29;1389;-68
2023/05/21 00:52:37;;;;;;;12.23;11.02;;;;;;;;;;475754;29;1177;-69
2023/05/21 00:52:59;;;;;;;11.00;9.98;;;;;;;;;;480472;29;1540;-69
2023/05/21 00:53:40;;;;;;;11.70;10.60;;;;;;;;;;469967;29;1140;-69
2023/05/21 00:54:18;;;;;;;12.00;10.90;;;;;;;;;;486911;29;1144;-68
2023/05/21 00:54:40;;;;;;;12.40;11.27;;;;;;;;;;475506;29;1756;-68
2023/05/21 00:55:02;;;;;;;12.73;11.52;;;;;;;;;;478240;29;1524;-69
2023/05/21 00:55:37;;;;;;;12.95;11.75;;;;;;;;;;470620;29;1046;-68
2023/05/21 00:56:15;;;;;;;14.77;11.60;;;;;;;;;;490500;29;1588;-69
2023/05/21 00:56:41;;;;;;;12.82;11.57;;;;;;;;;;488596;29;1096;-69
2023/05/21 00:57:52;;;;;;;12.82;11.48;;;;;;;;;;488732;29;1179;-69
2023/05/21 00:58:19;;;;;;;11.65;10.55;;;;;;;;;;487282;28;1247;-69
2023/05/21 00:59:52;;;;;;;12.30;11.20;;;;;;;;;;479254;29;1527;-69
2023/05/21 01:00:13;;;;;;;12.15;11.05;;;;;;;;;;477962;29;1347;-69
2023/05/21 01:00:43;;;;;;;12.15;10.88;;;;;;;;;;482044;29;901;-67
2023/05/21 01:01:12;;;;;;;12.02;10.82;;;;;;;;;;494430;29;1155;-68
2023/05/21 01:01:35;;;;;;;12.50;11.30;;;;;;;;;;481131;29;1108;-68
2023/05/21 01:02:12;;;;;;;;;;;;;;;;;;;;;
2023/05/21 01:02:33;;;;;;;11.57;10.57;;;;;;;;;;492117;29;980;-69
2023/05/21 01:03:15;;;;;;;11.30;10.30;;;;;;;;;;482388;29;1695;-69
2023/05/21 01:03:56;;;;;;;12.55;11.35;;;;;;;;;;487056;29;937;-69
2023/05/21 01:04:21;;;;;;;12.77;11.52;;;;;;;;;;487309;29;1657;-68
2023/05/21 01:05:29;;;;;;;12.80;11.50;;;;;;;;;;485611;29;1359;-69
2023/05/21 01:06:17;;;;;;;12.00;10.90;;;;;;;;;;470290;29;1564;-68
2023/05/21 01:06:36;;;;;;;11.90;10.80;;;;;;;;;;485477;29;1475;-68
2023/05/21 01:07:01;;;;;;;12.18;10.98;;;;;;;;;;478437;29;1048;-68
2023/05/21 01:07:40;;;;;;;12.23;11.02;;;;;;;;;;479415;29;1228;-69
2023/05/21 01:08:12;;;;;;;11.93;10.77;;;;;;;;;;480887;29;1095;-68
2023/05/21 01:08:33;;;;;;;12.18;11.07;;;;;;;;;;481280;28;1878;-68
2023/05/21 01:09:02;;;;;;;11.80;10.70;;;;;;;;;;495478;28;1075;-67
2023/05/21 01:09:26;;;;;;;12.25;11.05;;;;;;;;;;485001;28;1071;-69
2023/05/21 01:09:55;;;;;;;;;;;;;;;;;;;;;
2023/05/21 01:10:14;;;;;;;12.35;11.15;;;;;;;;;;494321;28;887;-69
2023/05/21 01:10:43;;;;;;;;;;;;;;;;;;;;;
2023/05/21 01:11:14;;;;;;;12.45;11.25;;;;;;;;;;490329;28;1174;-69
2023/05/21 01:11:44;;;;;;;12.63;11.40;;;;;;;;;;494114;28;1062;-69
2023/05/21 01:12:19;;;;;;;12.52;11.32;;;;;;;;;;497684;28;1310;-68
2023/05/21 01:12:43;;;;;;;12.32;11.15;;;;;;;;;;498041;28;1157;-68
2023/05/21 01:13:15;;;;;;;;;;;;;;;;;;;;;
2023/05/21 01:13:48;;;;;;;;;;;;;;;;;;;;;
2023/05/21 01:14:31;;;;;;;12.27;11.10;;;;;;;;;;493945;28;1147;-69
2023/05/21 01:15:03;;;;;;;12.07;10.88;;;;;;;;;;487797;28;1201;-67
2023/05/21 01:15:30;;;;;;;13.10;10.93;;;;;;;;;;495449;28;1203;-68
2023/05/21 01:16:17;;;;;;;;;;;;;;;;;;;;;
2023/05/21 01:17:13;;;;;;;12.60;11.40;;;;;;;;;;507232;28;1338;-69
2023/05/21 01:17:48;;;;;;;12.68;11.48;;;;;;;;;;497103;28;1377;-68
2023/05/21 01:18:28;;;;;;;;;;;;;;;;;;;;;
2023/05/21 01:18:50;;;;;;;13.93;12.20;;;;;;;;;;493570;28;1122;-67
2023/05/21 01:19:18;;;;;;;13.27;11.88;;;;;;;;;;485504;28;1721;-68
2023/05/21 01:19:53;;;;;;;13.18;11.77;;;;;;;;;;495444;28;1355;-68
2023/05/21 01:20:49;;;;;;;;;;;;;;;;;;;;;
2023/05/21 01:21:22;;;;;;;13.38;12.07;;;;;;;;;;487657;28;1086;-69
2023/05/21 01:22:27;;;;;;;12.95;11.65;;;;;;;;;;500986;28;2011;-68
2023/05/21 01:22:56;;;;;;;13.48;12.18;;;;;;;;;;493211;28;1434;-68
2023/05/21 01:23:40;;;;;;;13.07;11.77;;;;;;;;;;476344;29;1297;-69
2023/05/21 01:24:01;;;;;;;13.15;11.85;;;;;;;;;;481471;29;1199;-68
2023/05/21 01:24:25;;;;;;;12.82;11.63;;;;;;;;;;472727;29;1307;-68
2023/05/21 01:24:56;;;;;;;13.32;11.98;;;;;;;;;;483560;29;1244;-68
2023/05/21 01:25:47;;;;;;;;;;;;;;;;;;;;;
2023/05/21 01:26:06;;;;;;;12.55;11.45;;;;;;;;;;483655;28;1827;-68
2023/05/21 01:26:47;;;;;;;12.73;11.52;;;;;;;;;;480630;28;1102;-69
2023/05/21 01:29:32;;;;;;;12.93;11.63;;;;;;;;;;481968;29;1130;-68
2023/05/21 01:30:00;;;;;;;12.90;11.70;;;;;;;;;;476045;29;1450;-69
2023/05/21 01:30:42;;;;;;;12.98;11.77;;;;;;;;;;477115;29;1097;-68
2023/05/21 01:32:08;;;;;;;12.77;11.43;;;;;;;;;;477907;29;1333;-68
2023/05/21 01:32:50;;;;;;;;;;;;;;;;;;;;;
2023/05/21 01:34:52;;;;;;;12.60;11.40;;;;;;;;;;476490;29;1951;-68
2023/05/21 01:35:22;;;;;;;13.90;12.45;;;;;;;;;;471931;29;1063;-68
2023/05/21 01:36:07;;;;;;;12.60;11.50;;;;;;;;;;487035;29;1222;-68
2023/05/21 01:36:33;;;;;;;12.93;11.63;;;;;;;;;;475733;29;1092;-68
2023/05/21 01:37:25;;;;;;;11.98;10.82;;;;;;;;;;480672;29;1186;-68
2023/05/21 01:38:09;;;;;;;12.80;11.60;;;;;;;;;;480224;29;1395;-68
2023/05/21 01:39:07;;;;;;;13.43;12.05;;;;;;;;;;484003;29;1200;-68
2023/05/21 01:39:35;;;;;;;13.35;12.05;;;;;;;;;;465967;29;1419;-69
2023/05/21 01:40:16;;;;;;;12.95;11.65;;;;;;;;;;475120;29;1325;-69
2023/05/21 01:40:44;;;;;;;13.18;11.88;;;;;;;;;;476188;29;1255;-69
2023/05/21 01:41:23;;;;;;;;;;;;;;;;;;;;;
2023/05/21 01:41:56;;;;;;;13.55;12.23;;;;;;;;;;476741;29;1293;-69
2023/05/21 01:42:17;;;;;;;13.60;12.30;;;;;;;;;;473464;29;1355;-69
2023/05/21 01:42:59;;;;;;;13.48;12.18;;;;;;;;;;472184;29;980;-68
2023/05/21 01:43:32;;;;;;;13.05;11.80;;;;;;;;;;475335;29;1152;-69
2023/05/21 01:44:18;;;;;;;13.10;11.90;;;;;;;;;;487808;29;1289;-68
2023/05/21 01:45:13;;;;;;;13.93;12.18;;;;;;;;;;481095;29;1186;-69
2023/05/21 01:45:59;;;;;;;12.85;11.65;;;;;;;;;;480919;29;1829;-69
2023/05/21 01:46:46;;;;;;;12.93;11.63;;;;;;;;;;482278;29;1222;-68
2023/05/21 01:47:59;;;;;;;;;;;;;;;;;;;;;
2023/05/21 01:48:22;;;;;;;13.60;12.32;;;;;;;;;;471879;29;1143;-69
2023/05/21 01:49:07;;;;;;;13.85;12.43;;;;;;;;;;481883;29;1351;-69
2023/05/21 01:49:32;;;;;;;13.70;12.40;;;;;;;;;;480158;29;1218;-69
2023/05/21 01:50:15;;;;;;;13.00;11.80;;;;;;;;;;481758;29;1081;-69
2023/05/21 01:51:00;;;;;;;13.60;12.30;;;;;;;;;;479051;29;1097;-69
2023/05/21 01:51:41;;;;;;;12.93;11.63;;;;;;;;;;473102;29;1343;-68
2023/05/21 01:52:01;;;;;;;12.98;11.77;;;;;;;;;;469027;29;1073;-69
2023/05/21 01:52:38;;;;;;;13.40;12.10;;;;;;;;;;466921;29;1326;-69
2023/05/21 01:53:25;;;;;;;13.55;12.25;;;;;;;;;;466955;29;1937;-69
2023/05/21 01:54:02;;;;;;;13.00;11.80;;;;;;;;;;482387;29;1860;-69
2023/05/21 01:54:37;;;;;;;13.63;12.23;;;;;;;;;;471668;29;1972;-69
2023/05/21 01:55:09;;;;;;;13.00;11.70;;;;;;;;;;475975;29;1525;-68
2023/05/21 01:55:40;;;;;;;13.00;11.73;;;;;;;;;;479444;29;1358;-69
2023/05/21 01:56:15;;;;;;;13.20;12.00;;;;;;;;;;486060;29;1146;-69
2023/05/21 01:56:43;;;;;;;12.55;11.40;;;;;;;;;;480262;29;1862;-69
2023/05/21 01:57:49;;;;;;;12.80;11.60;;;;;;;;;;476057;29;1212;-68
2023/05/21 01:58:25;;;;;;;12.30;11.10;;;;;;;;;;477852;29;2295;-69
2023/05/21 01:58:48;;;;;;;13.30;11.90;;;;;;;;;;465782;29;1358;-69
2023/05/21 01:59:17;;;;;;;13.45;12.15;;;;;;;;;;471070;29;901;-69
2023/05/21 01:59:37;;;;;;;13.68;12.38;;;;;;;;;;469335;29;1386;-68
2023/05/21 01:59:55;;;;;;;13.02;11.82;;;;;;;;;;483086;29;1180;-69
2023/05/21 02:00:28;;;;;;;13.27;11.98;;;;;;;;;;477630;29;1131;-71
2023/05/21 02:00:53;;;;;;;13.02;11.73;;;;;;;;;;481628;29;1169;-69
2023/05/21 02:01:29;;;;;;;12.93;11.73;;;;;;;;;;471368;29;1227;-69
2023/05/21 02:01:56;;;;;;;12.85;11.57;;;;;;;;;;483684;29;1773;-68
2023/05/21 02:02:23;;;;;;;12.98;11.77;;;;;;;;;;471765;29;1564;-68
2023/05/21 02:03:04;;;;;;;13.70;12.30;;;;;;;;;;477213;29;1328;-68
2023/05/21 02:03:37;;;;;;;13.70;12.40;;;;;;;;;;474914;29;1236;-69
2023/05/21 02:04:13;;;;;;;13.70;12.40;;;;;;;;;;474467;29;1201;-69
2023/05/21 02:04:48;;;;;;;13.55;12.30;;;;;;;;;;466567;29;1207;-68
2023/05/21 02:05:12;;;;;;;13.43;12.13;;;;;;;;;;476756;29;1653;-69
2023/05/21 02:05:51;;;;;;;13.07;11.77;;;;;;;;;;474951;29;895;-69
2023/05/21 02:06:10;;;;;;;13.00;11.80;;;;;;;;;;481384;29;1386;-68
2023/05/21 02:07:00;;;;;;;13.18;11.88;;;;;;;;;;481618;29;1128;-69
2023/05/21 02:07:19;;;;;;;14.02;12.05;;;;;;;;;;481546;29;901;-69
2023/05/21 02:08:03;;;;;;;13.43;12.13;;;;;;;;;;495093;29;1154;-69
2023/05/21 02:08:26;;;;;;;14.15;12.65;;;;;;;;;;472106;29;1837;-68
2023/05/21 02:09:17;;;;;;;13.63;12.25;;;;;;;;;;489411;28;1499;-69
2023/05/21 02:09:56;;;;;;;13.73;12.43;;;;;;;;;;484319;29;1254;-69
2023/05/21 02:10:39;;;;;;;14.15;12.85;;;;;;;;;;471241;29;1630;-69
2023/05/21 02:11:14;;;;;;;13.35;12.05;;;;;;;;;;477970;29;930;-70
2023/05/21 02:11:37;;;;;;;12.50;11.38;;;;;;;;;;475013;29;1850;-69
2023/05/21 02:12:23;;;;;;;;;;;;;;;;;;;;;
2023/05/21 02:12:45;;;;;;;14.20;12.70;;;;;;;;;;483987;29;1382;-69
2023/05/21 02:13:09;;;;;;;14.10;12.80;;;;;;;;;;472270;29;1317;-69
2023/05/21 02:13:34;;;;;;;;;;;;;;;;;;;;;
2023/05/21 02:14:15;;;;;;;13.38;12.07;;;;;;;;;;466056;29;948;-69
2023/05/21 02:14:49;;;;;;;;;;;;;;;;;;;;;
2023/05/21 02:16:02;;;;;;;13.93;12.63;;;;;;;;;;478633;29;1210;-69
2023/05/21 02:16:24;;;;;;;13.55;12.20;;;;;;;;;;467086;29;1366;-68
2023/05/21 02:16:59;;;;;;;13.75;12.40;;;;;;;;;;477686;29;1647;-68
2023/05/21 02:17:45;;;;;;;13.20;11.80;;;;;;;;;;470892;29;1098;-68
2023/05/21 02:18:01;;;;;;;12.68;11.43;;;;;;;;;;479746;29;1877;-68
2023/05/21 02:18:40;;;;;;;12.60;11.40;;;;;;;;;;473497;29;1292;-69
2023/05/21 02:19:24;;;;;;;13.45;12.05;;;;;;;;;;470851;29;943;-68
2023/05/21 02:20:21;;;;;;;;;;;;;;;;;;;;;
2023/05/21 02:20:43;;;;;;;12.85;11.57;;;;;;;;;;479765;29;1208;-69
2023/05/21 02:21:04;;;;;;;12.63;11.40;;;;;;;;;;461576;30;1337;-69
2023/05/21 02:21:48;;;;;;;12.45;11.25;;;;;;;;;;467938;29;1151;-69
2023/05/21 02:22:27;;;;;;;12.05;10.90;;;;;;;;;;476568;29;1290;-69
2023/05/21 02:23:07;;;;;;;11.85;10.75;;;;;;;;;;484945;29;1440;-69
2023/05/21 02:23:40;;;;;;;12.95;11.68;;;;;;;;;;462943;29;1520;-67
2023/05/21 02:24:36;;;;;;;12.10;11.00;;;;;;;;;;466109;30;1216;-69
2023/05/21 02:25:00;;;;;;;12.45;11.15;;;;;;;;;;467292;29;1742;-68
2023/05/21 02:25:23;;;;;;;12.18;11.00;;;;;;;;;;464998;29;1290;-69
2023/05/21 02:25:45;;;;;;;12.38;11.18;;;;;;;;;;469110;29;1170;-68
2023/05/21 02:26:04;;;;;;;11.98;10.88;;;;;;;;;;478973;29;1147;-69
2023/05/21 02:26:32;;;;;;;12.20;11.00;;;;;;;;;;467734;29;1154;-69
2023/05/21 02:26:58;;;;;;;12.45;11.15;;;;;;;;;;476890;29;1596;-70
2023/05/21 02:27:30;;;;;;;;;;;;;;;;;;;;;
2023/05/21 02:28:09;;;;;;;12.90;11.70;;;;;;;;;;470903;29;1025;-69
2023/05/21 02:28:48;;;;;;;12.90;11.60;;;;;;;;;;459465;29;1114;-69
2023/05/21 02:29:37;;;;;;;;;;;;;;;;;;;;;
2023/05/21 02:30:31;;;;;;;12.88;11.57;;;;;;;;;;473684;29;1403;-69
2023/05/21 02:31:11;;;;;;;12.50;11.23;;;;;;;;;;467457;29;1152;-69
2023/05/21 02:31:40;;;;;;;12.18;10.98;;;;;;;;;;468807;29;875;-69
2023/05/21 02:31:58;;;;;;;11.70;10.60;;;;;;;;;;473286;29;1529;-68
2023/05/21 02:32:17;;;;;;;12.18;10.98;;;;;;;;;;470226;29;1202;-69
2023/05/21 02:32:53;;;;;;;;;;;;;;;;;;;;;
2023/05/21 02:33:13;;;;;;;12.80;11.48;;;;;;;;;;468290;29;855;-69
2023/05/21 02:33:45;;;;;;;11.75;10.65;;;;;;;;;;467814;29;1120;-69
2023/05/21 02:34:09;;;;;;;11.90;10.70;;;;;;;;;;477576;30;1153;-69
2023/05/21 02:34:41;;;;;;;12.15;11.05;;;;;;;;;;466844;29;1961;-69
2023/05/21 02:36:15;;;;;;;;;;;;;;;;;;;;;
2023/05/21 02:36:52;;;;;;;12.48;11.18;;;;;;;;;;463919;29;1338;-69
2023/05/21 02:37:17;;;;;;;11.95;10.82;;;;;;;;;;467546;29;1238;-69
2023/05/21 02:38:02;;;;;;;11.48;10.38;;;;;;;;;;473528;29;1202;-69
2023/05/21 02:38:31;;;;;;;11.65;10.50;;;;;;;;;;467421;29;1406;-70
2023/05/21 02:38:53;;;;;;;11.85;10.75;;;;;;;;;;470415;29;1493;-69
2023/05/21 02:39:21;;;;;;;12.00;10.90;;;;;;;;;;469062;29;1390;-69
2023/05/21 02:39:51;;;;;;;12.07;10.90;;;;;;;;;;476483;29;1577;-69
2023/05/21 02:40:16;;;;;;;11.98;10.88;;;;;;;;;;465155;29;1287;-68
2023/05/21 02:40:37;;;;;;;11.73;10.63;;;;;;;;;;471856;29;2005;-69
2023/05/21 02:40:58;;;;;;;11.77;10.57;;;;;;;;;;479229;29;1378;-69
2023/05/21 02:41:20;;;;;;;11.70;10.60;;;;;;;;;;468130;29;1225;-68
2023/05/21 02:42:04;;;;;;;;;;;;;;;;;;;;;
2023/05/21 02:42:23;;;;;;;12.20;10.75;;;;;;;;;;463229;29;1256;-69
2023/05/21 02:42:49;;;;;;;11.85;10.60;;;;;;;;;;480496;29;1404;-69
2023/05/21 02:43:20;;;;;;;12.20;11.00;;;;;;;;;;474248;29;1036;-69
2023/05/21 02:43:54;;;;;;;;;;;;;;;;;;;;;
2023/05/21 02:44:44;;;;;;;;;;;;;;;;;;;;;
2023/05/21 02:45:03;;;;;;;12.02;10.82;;;;;;;;;;470212;29;1391;-69
2023/05/21 02:45:28;;;;;;;12.13;10.93;;;;;;;;;;469541;29;1358;-69
2023/05/21 02:46:16;;;;;;;12.20;11.00;;;;;;;;;;473181;29;1328;-69
2023/05/21 02:46:32;;;;;;;12.80;11.45;;;;;;;;;;474632;30;1866;-69
2023/05/21 02:47:11;;;;;;;12.85;11.43;;;;;;;;;;474493;29;998;-69
2023/05/21 02:47:43;;;;;;;;;;;;;;;;;;;;;
2023/05/21 02:48:23;;;;;;;;;;;;;;;;;;;;;
2023/05/21 02:48:39;;;;;;;12.35;11.15;;;;;;;;;;467437;29;1971;-69
2023/05/21 02:49:01;;;;;;;11.82;10.73;;;;;;;;;;486338;29;1486;-68
2023/05/21 02:49:27;;;;;;;;;;;;;;;;;;;;;
2023/05/21 02:49:55;;;;;;;11.60;10.50;;;;;;;;;;481781;29;961;-68
2023/05/21 02:50:50;;;;;;;;;;;;;;;;;;;;;
2023/05/21 02:52:17;;;;;;;12.30;11.10;;;;;;;;;;467182;29;2003;-70
2023/05/21 02:53:33;;;;;;;12.43;11.23;;;;;;;;;;480933;29;1543;-69
2023/05/21 02:54:19;;;;;;;12.38;11.18;;;;;;;;;;480095;29;1212;-68
2023/05/21 02:54:44;;;;;;;12.77;11.35;;;;;;;;;;470307;29;1241;-69
2023/05/21 02:55:03;;;;;;;12.52;11.23;;;;;;;;;;475188;29;1415;-69
2023/05/21 02:56:10;;;;;;;;;;;;;;;;;;;;;
2023/05/21 02:56:48;;;;;;;;;;;;;;;;;;;;;
2023/05/21 02:57:21;;;;;;;12.50;11.30;;;;;;;;;;473084;30;1127;-69
2023/05/21 02:57:50;;;;;;;12.15;10.85;;;;;;;;;;461686;29;1178;-69
2023/05/21 02:58:52;;;;;;;12.18;10.98;;;;;;;;;;469367;30;1126;-69
2023/05/21 02:59:41;;;;;;;13.10;11.18;;;;;;;;;;470106;29;1398;-69
2023/05/21 03:00:04;;;;;;;12.57;11.27;;;;;;;;;;474026;30;1320;-69
2023/05/21 03:00:26;;;;;;;12.38;11.18;;;;;;;;;;468142;29;1274;-69
2023/05/21 03:00:54;;;;;;;11.63;10.43;;;;;;;;;;467261;29;1170;-68
2023/05/21 03:01:18;;;;;;;12.15;10.95;;;;;;;;;;468645;29;1369;-69
2023/05/21 03:02:12;;;;;;;12.65;11.35;;;;;;;;;;475567;30;1532;-69
2023/05/21 03:03:11;;;;;;;12.85;11.43;;;;;;;;;;465793;29;1148;-68
2023/05/21 03:03:26;;;;;;;12.38;11.18;;;;;;;;;;477848;29;1262;-68
2023/05/21 03:03:58;;;;;;;;;;;;;;;;;;;;;
2023/05/21 03:05:09;;;;;;;;;;;;;;;;;;;;;
2023/05/21 03:05:47;;;;;;;12.10;10.85;;;;;;;;;;475725;29;1337;-69
2023/05/21 03:06:13;;;;;;;12.32;11.13;;;;;;;;;;476162;29;1615;-69
2023/05/21 03:07:42;;;;;;;12.52;11.32;;;;;;;;;;474134;29;951;-68
2023/05/21 03:08:28;;;;;;;12.88;11.55;;;;;;;;;;478758;29;1212;-68
2023/05/21 03:09:10;;;;;;;12.38;11.27;;;;;;;;;;482874;29;1511;-68
2023/05/21 03:09:46;;;;;;;12.88;11.65;;;;;;;;;;472059;29;1312;-68
2023/05/21 03:10:33;;;;;;;;;;;;;;;;;;;;;
2023/05/21 03:10:52;;;;;;;12.55;11.40;;;;;;;;;;482065;29;1250;-68
2023/05/21 03:12:36;;;;;;;12.27;11.10;;;;;;;;;;470589;29;1822;-69
2023/05/21 03:13:25;;;;;;;;;;;;;;;;;;;;;
2023/05/21 03:13:56;;;;;;;12.55;11.35;;;;;;;;;;482529;29;1306;-68
2023/05/21 03:14:31;;;;;;;12.40;11.20;;;;;;;;;;470745;29;925;-69
2023/05/21 03:15:11;;;;;;;;;;;;;;;;;;;;;
2023/05/21 03:16:33;;;;;;;12.45;11.25;;;;;;;;;;477068;29;1098;-69
2023/05/21 03:17:22;;;;;;;12.45;11.25;;;;;;;;;;464330;29;1477;-68
2023/05/21 03:17:44;;;;;;;12.60;11.30;;;;;;;;;;467265;30;1989;-69
2023/05/21 03:18:29;;;;;;;12.43;11.18;;;;;;;;;;459858;30;1095;-69
2023/05/21 03:19:03;;;;;;;12.13;10.93;;;;;;;;;;467002;30;1465;-69
2023/05/21 03:19:42;;;;;;;12.73;11.43;;;;;;;;;;459343;30;1334;-69
2023/05/21 03:20:27;;;;;;;;;;;;;;;;;;;;;
2023/05/21 03:20:46;;;;;;;12.65;11.35;;;;;;;;;;453993;30;1121;-68
2023/05/21 03:21:31;;;;;;;12.70;11.50;;;;;;;;;;463777;30;1826;-70
2023/05/21 03:22:19;;;;;;;12.00;10.80;;;;;;;;;;463508;30;1323;-69
2023/05/21 03:22:57;;;;;;;12.25;11.07;;;;;;;;;;465181;30;1978;-69
2023/05/21 03:23:13;;;;;;;12.65;11.38;;;;;;;;;;458729;30;1314;-69
2023/05/21 03:23:47;;;;;;;;;;;;;;;;;;;;;
2023/05/21 03:24:52;;;;;;;12.15;10.95;;;;;;;;;;471034;30;1160;-71
2023/05/21 03:25:24;;;;;;;11.88;10.70;;;;;;;;;;464301;30;1191;-69
2023/05/21 03:25:53;;;;;;;12.02;10.82;;;;;;;;;;472880;30;1532;-68
2023/05/21 03:26:26;;;;;;;12.30;11.10;;;;;;;;;;458710;30;1387;-69
2023/05/21 03:27:04;;;;;;;;;;;;;;;;;;;;;
2023/05/21 03:27:49;;;;;;;12.00;10.80;;;;;;;;;;462060;30;1305;-69
2023/05/21 03:28:22;;;;;;;12.10;10.90;;;;;;;;;;467718;30;1486;-69
2023/05/21 03:29:01;;;;;;;12.15;10.95;;;;;;;;;;469244;30;1100;-69
2023/05/21 03:29:35;;;;;;;11.77;10.63;;;;;;;;;;461155;30;1078;-69
2023/05/21 03:30:17;;;;;;;11.70;10.55;;;;;;;;;;464575;30;1253;-69
2023/05/21 03:30:56;;;;;;;12.30;11.10;;;;;;;;;;463321;30;1650;-69
2023/05/21 03:31:23;;;;;;;12.52;11.32;;;;;;;;;;456978;30;1260;-69
2023/05/21 03:32:00;;;;;;;12.35;11.15;;;;;;;;;;469640;30;1040;-68
2023/05/21 03:33:40;;;;;;;;;;;;;;;;;;;;;
2023/05/21 03:34:10;;;;;;;;;;;;;;;;;;;;;
2023/05/21 03:34:40;;;;;;;12.57;11.27;;;;;;;;;;476318;29;1955;-69
2023/05/21 03:35:04;;;;;;;12.23;11.10;;;;;;;;;;484068;29;1399;-69
2023/05/21 03:35:32;;;;;;;12.63;11.32;;;;;;;;;;471075;29;1200;-69
2023/05/21 03:36:21;;;;;;;12.40;11.10;;;;;;;;;;474891;29;1055;-69
2023/05/21 03:37:03;;;;;;;12.57;11.27;;;;;;;;;;483474;29;1096;-69
2023/05/21 03:37:35;;;;;;;11.85;10.77;;;;;;;;;;475294;29;1426;-70
2023/05/21 03:38:07;;;;;;;12.57;11.38;;;;;;;;;;474243;29;1184;-69
2023/05/21 03:38:48;;;;;;;;;;;;;;;;;;;;;
2023/05/21 03:40:13;;;;;;;12.50;11.20;;;;;;;;;;475362;29;1157;-68
2023/05/21 03:41:18;;;;;;;;;;;;;;;;;;;;;
2023/05/21 03:41:43;;;;;;;12.00;10.80;;;;;;;;;;473071;29;1244;-69
2023/05/21 03:42:13;;;;;;;12.40;11.20;;;;;;;;;;477669;29;1185;-69
2023/05/21 03:43:33;;;;;;;12.40;11.10;;;;;;;;;;468934;29;1263;-69
2023/05/21 03:44:40;;;;;;;12.02;10.82;;;;;;;;;;464324;29;1425;-69
2023/05/21 03:45:09;;;;;;;12.45;11.25;;;;;;;;;;480648;29;1792;-70
2023/05/21 03:45:42;;;;;;;13.00;11.00;;;;;;;;;;471179;29;1177;-68
2023/05/21 03:46:30;;;;;;;;;;;;;;;;;;;;;
2023/05/21 03:47:02;;;;;;;12.40;11.20;;;;;;;;;;477003;29;1102;-69
2023/05/21 03:48:04;;;;;;;12.10;10.95;;;;;;;;;;472287;29;1431;-68